Time;durP1;ratioP1;P1;durP2;ratioP2;P2;SDS_P1;SDS_P2;PMS_P1;PMS_P2;Temp;Humidity;BMP_temperature;BMP_pressure;BME280_temperature;BME280_humidity;BME280_pressure;Samples;Min_cycle;Max_cycle;Signal;HPM_P1;HPM_P2
2022/01/17 00:00:44;;;;;;;42.23;18.40;;;;;;;-1.34;58.94;100631.45;126306;1099;104144;-78
2022/01/17 00:03:16;;;;;;;44.90;18.73;;;;;;;-1.33;57.87;100630.68;126300;1098;104146;-78
2022/01/17 00:05:47;;;;;;;46.53;19.07;;;;;;;-1.32;57.87;100629.92;126353;1099;104254;-78
2022/01/17 00:08:19;;;;;;;38.57;16.83;;;;;;;-1.33;58.93;100633.26;126258;1099;104245;-79
2022/01/17 00:10:53;;;;;;;43.43;18.57;;;;;;;-1.33;58.22;100634.15;126371;1099;104140;-79
2022/01/17 00:13:26;;;;;;;;;;;;;;;-1.33;58.96;100623.84;126161;1099;104219;-79
2022/01/17 00:16:04;;;;;;;42.17;17.63;;;;;;;-1.35;58.87;100624.52;125223;1099;104302;-79
2022/01/17 00:19:06;;;;;;;46.00;18.90;;;;;;;-1.35;58.06;100627.09;125507;1099;104156;-78
2022/01/17 00:21:41;;;;;;;52.83;21.43;;;;;;;-1.40;58.22;100624.13;125296;1099;104317;-79
2022/01/17 00:24:13;;;;;;;52.27;23.33;;;;;;;-1.52;58.56;100629.11;125284;1099;104329;-79
2022/01/17 00:26:47;;;;;;;54.43;24.40;;;;;;;-1.63;58.37;100627.30;125299;1102;104296;-79
2022/01/17 00:29:22;;;;;;;56.43;24.17;;;;;;;-1.73;58.09;100620.47;125957;1099;104156;-79
2022/01/17 00:31:54;;;;;;;55.93;25.30;;;;;;;-1.79;58.67;100619.02;126252;1099;104156;-78
2022/01/17 00:34:26;;;;;;;53.80;26.47;;;;;;;-1.82;58.39;100617.09;126140;1099;104398;-78
2022/01/17 00:36:57;;;;;;;53.60;25.20;;;;;;;-1.83;58.08;100612.71;126227;1099;104194;-78
2022/01/17 00:39:29;;;;;;;55.83;24.20;;;;;;;-1.84;58.87;100616.96;125283;1100;104392;-78
2022/01/17 00:42:00;;;;;;;48.67;22.50;;;;;;;-1.82;58.14;100611.95;125274;1099;104300;-79
2022/01/17 00:44:35;;;;;;;52.70;24.37;;;;;;;-1.85;58.58;100607.44;125318;1099;104288;-78
2022/01/17 00:47:07;;;;;;;52.93;24.43;;;;;;;-1.85;58.34;100597.14;125312;1099;104201;-78
2022/01/17 00:49:39;;;;;;;57.37;24.80;;;;;;;-1.86;59.65;100597.91;125970;1099;104182;-79
2022/01/17 00:52:10;;;;;;;58.33;28.97;;;;;;;-1.88;58.84;100586.59;126264;1099;104168;-79
2022/01/17 00:54:42;;;;;;;51.27;25.27;;;;;;;-1.86;58.52;100587.61;126271;1099;104248;-78
2022/01/17 00:57:13;;;;;;;55.97;24.27;;;;;;;-1.85;58.46;100586.86;126337;1099;104192;-78
2022/01/17 00:59:44;;;;;;;51.17;22.43;;;;;;;-1.84;58.58;100583.52;126237;1099;104147;-78
2022/01/17 01:02:16;;;;;;;47.97;21.47;;;;;;;-1.84;58.77;100578.38;126291;1099;104174;-78
2022/01/17 01:04:48;;;;;;;51.70;20.20;;;;;;;-1.82;58.52;100573.37;126359;1099;104153;-79
2022/01/17 01:07:19;;;;;;;46.77;21.00;;;;;;;-1.81;59.37;100570.00;126285;1099;104233;-78
2022/01/17 01:10:01;;;;;;;44.23;19.63;;;;;;;-1.83;58.39;100563.84;126307;1099;104226;-79
2022/01/17 01:12:32;;;;;;;43.23;20.33;;;;;;;-1.82;58.21;100555.36;126273;1099;104156;-79
2022/01/17 01:15:05;;;;;;;49.23;21.33;;;;;;;-1.79;58.63;100552.13;126182;1098;104287;-79
2022/01/17 01:17:48;;;;;;;44.33;21.60;;;;;;;-1.76;59.20;100547.24;126173;1097;104440;-79
2022/01/17 01:20:36;;;;;;;48.00;20.27;;;;;;;-1.72;59.22;100551.89;126086;1099;104239;-79
2022/01/17 01:28:46;;;;;;;50.27;22.03;;;;;;;-1.61;58.67;100534.80;126194;1099;104163;-78
2022/01/17 01:31:27;;;;;;;45.53;20.03;;;;;;;-1.58;59.36;100530.80;126328;1099;104176;-78
2022/01/17 01:34:04;;;;;;;45.13;19.53;;;;;;;-1.55;59.32;100523.33;126289;1099;104271;-78
2022/01/17 01:36:36;;;;;;;46.13;20.07;;;;;;;-1.50;59.64;100519.46;126348;1099;104624;-78
2022/01/17 01:39:10;;;;;;;45.97;19.60;;;;;;;-1.46;59.30;100513.81;126269;1099;104156;-79
2022/01/17 01:41:43;;;;;;;45.70;20.50;;;;;;;-1.40;58.85;100516.01;126336;1099;104628;-78
2022/01/17 01:44:18;;;;;;;48.60;21.00;;;;;;;-1.36;59.77;100512.00;126354;1097;104252;-79
2022/01/17 01:46:52;;;;;;;47.60;20.27;;;;;;;-1.32;59.52;100511.50;126295;1099;104181;-79
2022/01/17 01:49:25;;;;;;;43.33;20.48;;;;;;;-1.30;59.67;100513.41;126258;1099;104187;-79
2022/01/17 01:52:07;;;;;;;45.40;20.60;;;;;;;-1.28;59.44;100510.95;126303;1099;104248;-79
2022/01/17 01:54:39;;;;;;;48.40;20.93;;;;;;;-1.24;59.39;100499.26;126392;1097;104185;-79
2022/01/17 01:57:11;;;;;;;46.37;20.60;;;;;;;-1.21;59.00;100497.83;126330;1099;104201;-79
2022/01/17 01:59:48;;;;;;;47.83;20.40;;;;;;;-1.15;59.38;100493.19;126262;1099;104331;-79
2022/01/17 02:02:19;;;;;;;42.47;18.87;;;;;;;-1.13;59.43;100496.77;126331;1099;104156;-78
2022/01/17 02:04:51;;;;;;;45.57;21.10;;;;;;;-1.15;60.21;100488.03;126162;1099;104153;-79
2022/01/17 02:07:24;;;;;;;44.00;19.93;;;;;;;-1.15;59.34;100487.14;126302;1097;104624;-79
2022/01/17 02:09:55;;;;;;;48.17;21.40;;;;;;;-1.13;59.69;100481.32;126306;1099;104293;-79
2022/01/17 02:12:29;;;;;;;42.20;18.20;;;;;;;-1.10;59.23;100480.69;126339;1099;104249;-79
2022/01/17 02:15:02;;;;;;;38.60;18.27;;;;;;;-1.05;59.32;100481.95;126361;1098;104175;-79
2022/01/17 02:17:40;;;;;;;44.13;19.30;;;;;;;-1.03;59.20;100472.66;126319;1099;104150;-79
2022/01/17 02:20:17;;;;;;;42.30;20.17;;;;;;;-0.98;59.93;100465.30;126260;1099;104249;-79
2022/01/17 02:22:48;;;;;;;45.17;19.97;;;;;;;-0.94;60.35;100455.38;126336;1099;104225;-79
2022/01/17 02:25:21;;;;;;;42.77;19.00;;;;;;;-0.89;59.50;100458.32;126297;1099;104232;-78
2022/01/17 02:27:52;;;;;;;40.37;18.03;;;;;;;-0.86;59.46;100453.41;126318;1099;104179;-78
2022/01/17 02:30:25;;;;;;;40.07;17.87;;;;;;;-0.82;60.02;100458.05;126200;1099;104150;-78
2022/01/17 02:32:57;;;;;;;37.13;17.15;;;;;;;-0.79;60.36;100453.14;126320;1097;104225;-78
2022/01/17 02:35:29;;;;;;;39.97;16.80;;;;;;;-0.73;60.18;100440.75;126331;1099;104360;-78
2022/01/17 02:38:03;;;;;;;38.38;17.37;;;;;;;-0.69;59.81;100434.15;126313;1099;104956;-78
2022/01/17 02:40:36;;;;;;;39.23;17.33;;;;;;;-0.66;59.88;100433.50;126287;1099;104248;-79
2022/01/17 02:43:08;;;;;;;52.73;19.63;;;;;;;-0.66;59.97;100430.92;126309;1099;104149;-78
2022/01/17 02:46:24;;;;;;;43.97;19.33;;;;;;;-0.76;60.26;100421.58;126317;1099;104136;-78
2022/01/17 02:48:35;;;;;;;42.87;19.90;;;;;;;-0.87;59.55;100428.45;126290;1099;104150;-78
2022/01/17 02:51:11;;;;;;;41.80;18.33;;;;;;;-0.89;59.84;100421.36;126264;1099;104733;-79
2022/01/17 02:53:42;;;;;;;42.43;18.00;;;;;;;-0.93;60.04;100417.66;126305;1099;104255;-79
2022/01/17 02:56:15;;;;;;;41.57;18.77;;;;;;;-0.97;59.97;100420.75;126302;1099;104146;-79
2022/01/17 02:58:50;;;;;;;40.20;18.23;;;;;;;-0.99;59.44;100417.16;126327;1099;104150;-79
2022/01/17 03:01:29;;;;;;;43.93;19.00;;;;;;;-1.00;60.46;100411.09;126262;1099;104147;-79
2022/01/17 03:04:04;;;;;;;40.70;17.90;;;;;;;-1.01;59.81;100418.70;126276;1099;104232;-78
2022/01/17 03:06:38;;;;;;;36.70;17.07;;;;;;;-1.00;60.12;100421.39;126282;1099;104179;-79
2022/01/17 03:09:10;;;;;;;39.47;17.97;;;;;;;-1.00;60.49;100413.66;126310;1099;104248;-78
2022/01/17 03:11:41;;;;;;;40.13;17.63;;;;;;;-1.01;59.65;100419.62;126281;1099;104155;-78
2022/01/17 03:14:16;;;;;;;39.43;18.57;;;;;;;-0.99;60.35;100418.05;126335;1099;104140;-78
2022/01/17 03:16:49;;;;;;;40.07;18.17;;;;;;;-0.97;59.98;100408.77;126285;1099;104195;-78
2022/01/17 03:19:20;;;;;;;40.97;17.67;;;;;;;-0.94;60.47;100410.69;126313;1099;104150;-79
2022/01/17 03:21:51;;;;;;;37.33;16.87;;;;;;;-0.90;60.53;100410.17;126252;1099;104245;-78
2022/01/17 03:24:23;;;;;;;39.20;18.20;;;;;;;-0.88;60.27;100406.03;126379;1099;104179;-79
2022/01/17 03:26:54;;;;;;;34.00;16.33;;;;;;;-0.84;60.14;100410.66;126358;1099;104174;-79
2022/01/17 03:29:27;;;;;;;35.73;16.83;;;;;;;-0.82;60.55;100409.09;126332;1099;104242;-79
2022/01/17 03:32:02;;;;;;;35.50;15.77;;;;;;;-0.82;60.17;100409.09;126290;1099;104274;-78
2022/01/17 03:34:34;;;;;;;39.93;16.10;;;;;;;-0.80;60.03;100409.22;126335;1097;104287;-78
2022/01/17 03:37:05;;;;;;;37.60;16.73;;;;;;;-0.77;60.10;100402.62;126345;1099;104149;-79
2022/01/17 03:39:38;;;;;;;37.57;15.93;;;;;;;-0.77;59.92;100394.00;126294;1099;104162;-79
2022/01/17 03:42:10;;;;;;;41.90;19.27;;;;;;;-0.83;60.22;100399.56;126237;1099;105598;-78
2022/01/17 03:44:41;;;;;;;40.90;18.10;;;;;;;-0.88;60.73;100387.11;126340;1099;102144;-78
2022/01/17 03:47:17;;;;;;;43.50;18.77;;;;;;;-0.86;60.45;100388.12;126272;1099;104153;-78
2022/01/17 03:49:51;;;;;;;45.27;18.93;;;;;;;-0.87;59.87;100382.08;126185;1099;104165;-79
2022/01/17 03:52:23;;;;;;;35.33;16.97;;;;;;;-0.85;60.98;100377.94;126124;1099;105537;-79
2022/01/17 03:54:54;;;;;;;39.60;16.77;;;;;;;-0.86;60.15;100385.55;126124;1097;104345;-79
2022/01/17 03:57:26;;;;;;;42.43;17.63;;;;;;;-0.87;60.56;100382.08;126296;1096;104207;-78
2022/01/17 03:59:57;;;;;;;39.70;16.90;;;;;;;-0.84;61.08;100384.90;126336;1099;104152;-79
2022/01/17 04:02:31;;;;;;;39.03;17.60;;;;;;;-0.82;59.98;100378.18;126300;1099;102019;-79
2022/01/17 04:05:03;;;;;;;41.90;19.27;;;;;;;-0.80;60.95;100381.77;126308;1099;104191;-78
2022/01/17 04:07:34;;;;;;;42.67;18.47;;;;;;;-0.78;60.38;100377.66;126256;1099;104146;-79
2022/01/17 04:10:08;;;;;;;44.67;19.47;;;;;;;-0.77;60.69;100373.39;126097;1099;104208;-79
2022/01/17 04:12:39;;;;;;;36.77;17.48;;;;;;;-0.77;60.99;100369.13;126201;1099;104278;-79
2022/01/17 04:15:15;;;;;;;38.70;16.73;;;;;;;-0.77;60.49;100360.50;126304;1098;104175;-79
2022/01/17 04:17:46;;;;;;;40.33;17.17;;;;;;;-0.78;60.96;100359.62;126250;1099;104293;-79
2022/01/17 04:20:26;;;;;;;41.50;17.90;;;;;;;-0.79;60.47;100351.77;126218;1098;104271;-79
2022/01/17 04:22:59;;;;;;;39.00;17.70;;;;;;;-0.80;60.47;100352.53;126172;1099;104657;-79
2022/01/17 04:25:32;;;;;;;45.03;18.33;;;;;;;-0.81;60.32;100351.65;126246;1099;104155;-78
2022/01/17 04:28:05;;;;;;;42.40;18.90;;;;;;;-0.83;60.42;100347.14;126219;1099;104233;-79
2022/01/17 04:30:38;;;;;;;45.33;19.70;;;;;;;-0.84;60.43;100351.41;126273;1099;104259;-79
2022/01/17 04:33:09;;;;;;;40.70;18.13;;;;;;;-0.84;60.57;100348.83;126217;1099;104288;-78
2022/01/17 04:35:42;;;;;;;42.50;19.17;;;;;;;-0.86;60.43;100345.21;126249;1099;104155;-78
2022/01/17 04:38:17;;;;;;;43.83;19.23;;;;;;;-0.85;60.00;100348.70;126315;1099;104242;-79
2022/01/17 04:40:50;;;;;;;44.03;20.33;;;;;;;-0.82;60.81;100348.95;126361;1099;104137;-79
2022/01/17 04:43:43;;;;;;;46.53;19.10;;;;;;;-0.82;60.89;100342.11;126202;1099;104149;-79
2022/01/17 04:46:13;;;;;;;38.77;18.57;;;;;;;-0.77;60.85;100343.36;126304;1098;103986;-79
2022/01/17 04:48:45;;;;;;;47.77;18.17;;;;;;;-0.77;60.92;100339.89;126381;1099;104144;-79
2022/01/17 04:51:19;;;;;;;34.00;16.93;;;;;;;-0.77;60.31;100335.63;126334;1099;104178;-79
2022/01/17 04:54:11;;;;;;;44.53;17.32;;;;;;;-0.76;60.35;100333.97;126258;1099;104248;-80
2022/01/17 04:56:43;;;;;;;35.53;16.33;;;;;;;-0.75;60.96;100328.02;126394;1099;104557;-80
2022/01/17 04:59:14;;;;;;;41.50;16.80;;;;;;;-0.76;60.65;100319.40;126330;1097;104252;-81
2022/01/17 05:01:46;;;;;;;40.37;16.43;;;;;;;-0.74;61.28;100317.83;126263;1099;104150;-80
2022/01/17 05:04:17;;;;;;;38.87;16.63;;;;;;;-0.71;60.70;100309.45;126197;1099;104229;-81
2022/01/17 05:06:49;;;;;;;43.77;16.90;;;;;;;-0.68;60.91;100301.06;126302;1099;104174;-81
2022/01/17 05:09:20;;;;;;;43.00;17.60;;;;;;;-0.66;61.44;100289.19;126141;1099;104648;-81
2022/01/17 05:11:52;;;;;;;48.17;17.50;;;;;;;-0.64;60.59;100282.46;126080;1099;104819;-81
2022/01/17 05:14:25;;;;;;;56.03;18.27;;;;;;;-0.63;61.45;100274.84;126053;1099;104236;-81
2022/01/17 05:17:04;;;;;;;43.58;16.35;;;;;;;-0.62;60.48;100275.77;126119;1099;104182;-81
2022/01/17 05:19:48;;;;;;;53.33;18.33;;;;;;;-0.60;61.38;100267.35;126059;1098;104245;-80
2022/01/17 05:22:25;;;;;;;45.17;16.50;;;;;;;-0.58;61.11;100258.08;126097;1099;104283;-81
2022/01/17 05:24:56;;;;;;;42.55;17.40;;;;;;;-0.56;60.56;100255.62;126015;1099;104273;-80
2022/01/17 05:27:30;;;;;;;38.10;15.98;;;;;;;-0.56;61.30;100255.62;126169;1099;104175;-80
2022/01/17 05:30:01;;;;;;;43.47;17.70;;;;;;;-0.55;60.76;100245.42;126172;1099;104144;-79
2022/01/17 05:32:33;;;;;;;37.13;16.27;;;;;;;-0.54;60.68;100241.16;126299;1099;104181;-80
2022/01/17 05:35:06;;;;;;;38.67;17.37;;;;;;;-0.53;60.87;100240.39;126313;1099;104146;-80
2022/01/17 05:37:38;;;;;;;37.87;16.77;;;;;;;-0.53;60.35;100230.08;126309;1099;104143;-80
2022/01/17 05:40:23;;;;;;;35.57;16.67;;;;;;;-0.52;61.00;100226.69;126326;1099;104146;-81
2022/01/17 05:42:55;;;;;;;38.97;17.63;;;;;;;-0.51;60.98;100225.92;126317;1099;104161;-80
2022/01/17 05:45:26;;;;;;;39.30;17.07;;;;;;;-0.51;60.59;100225.92;126302;1097;104285;-80
2022/01/17 05:48:02;;;;;;;48.37;18.70;;;;;;;-0.48;61.17;100230.39;126325;1099;104150;-81
2022/01/17 05:50:34;;;;;;;38.73;17.70;;;;;;;-0.48;61.35;100244.20;126256;1099;104197;-80
2022/01/17 05:53:10;;;;;;;38.47;16.93;;;;;;;-0.49;60.79;100234.66;126309;1099;104625;-81
2022/01/17 05:55:44;;;;;;;43.57;17.83;;;;;;;-0.47;61.49;100240.81;126301;1099;104150;-80
2022/01/17 05:58:19;;;;;;;39.63;18.30;;;;;;;-0.47;61.03;100251.13;126223;1099;104242;-81
2022/01/17 06:00:52;;;;;;;37.60;16.37;;;;;;;-0.48;61.04;100246.77;126270;1099;104338;-81
2022/01/17 06:03:25;;;;;;;42.57;18.00;;;;;;;-0.48;61.17;100244.20;126298;1099;104309;-80
2022/01/17 06:05:57;;;;;;;45.63;19.07;;;;;;;-0.45;61.10;100241.85;126100;1099;104178;-82
2022/01/17 06:08:28;;;;;;;36.87;17.60;;;;;;;-0.44;61.18;100238.47;126211;1099;104150;-81
2022/01/17 06:11:00;;;;;;;37.50;17.53;;;;;;;-0.42;61.07;100234.34;126235;1099;104223;-80
2022/01/17 06:13:35;;;;;;;46.97;19.30;;;;;;;-0.43;61.07;100229.08;126241;1099;104158;-80
2022/01/17 06:16:11;;;;;;;42.57;18.67;;;;;;;-0.42;61.31;100226.61;126205;1099;104191;-81
2022/01/17 06:18:44;;;;;;;42.87;19.00;;;;;;;-0.42;61.15;100230.85;126153;1099;104325;-80
2022/01/17 06:21:15;;;;;;;46.20;20.00;;;;;;;-0.45;61.26;100239.27;126100;1099;104195;-81
2022/01/17 06:24:00;;;;;;;61.53;28.37;;;;;;;-0.55;61.22;100240.27;126063;1097;101810;-80
2022/01/17 06:26:32;;;;;;;62.67;29.47;;;;;;;-0.73;61.22;100236.30;126070;1099;102042;-80
2022/01/17 06:29:05;;;;;;;59.20;29.20;;;;;;;-0.89;61.78;100230.73;125856;1099;102379;-79
2022/01/17 06:31:38;;;;;;;65.87;31.20;;;;;;;-1.07;61.81;100225.09;125892;1099;104198;-79
2022/01/17 06:34:11;;;;;;;63.30;30.47;;;;;;;-1.20;61.11;100221.56;125815;1099;104182;-79
2022/01/17 06:36:44;;;;;;;69.90;32.33;;;;;;;-1.31;62.06;100218.14;125727;1099;104191;-78
2022/01/17 06:39:16;;;;;;;63.40;29.70;;;;;;;-1.37;61.84;100211.59;125838;1099;104319;-81
2022/01/17 06:41:53;;;;;;;65.33;29.60;;;;;;;-1.37;62.48;100219.31;125932;1099;104191;-81
2022/01/17 06:44:27;;;;;;;62.30;29.70;;;;;;;-1.40;61.33;100207.13;126010;1099;104268;-80
2022/01/17 06:47:02;;;;;;;60.93;28.50;;;;;;;-1.39;61.60;100208.02;125237;1099;104178;-80
2022/01/17 06:49:38;;;;;;;61.90;28.73;;;;;;;-1.38;61.98;100205.56;125935;1099;104727;-83
2022/01/17 06:52:20;;;;;;;55.35;27.22;;;;;;;-1.39;62.21;100208.02;126035;1099;104147;-77
2022/01/17 06:54:53;;;;;;;62.13;28.73;;;;;;;-1.40;61.77;100199.41;125986;1099;104152;-78
2022/01/17 06:57:28;;;;;;;56.77;27.50;;;;;;;-1.40;62.35;100198.48;126020;1099;104165;-77
2022/01/17 07:00:05;;;;;;;61.43;29.23;;;;;;;-1.41;61.90;100192.45;125633;1099;104216;-77
2022/01/17 07:02:36;;;;;;;59.23;29.57;;;;;;;-1.43;62.34;100185.38;125859;1098;104166;-80
2022/01/17 07:05:10;;;;;;;59.83;28.63;;;;;;;-1.42;62.26;100182.03;125983;1097;104304;-79
2022/01/17 07:07:44;;;;;;;58.40;28.97;;;;;;;-1.35;62.14;100176.59;125710;1099;106959;-80
2022/01/17 07:10:16;;;;;;;53.52;27.02;;;;;;;-1.33;61.88;100157.89;126013;1099;104178;-78
2022/01/17 07:12:50;;;;;;;58.47;25.70;;;;;;;-1.27;62.18;100152.34;125947;1099;104274;-81
2022/01/17 07:15:28;;;;;;;50.00;24.47;;;;;;;-1.17;62.10;100143.62;125665;1099;104142;-79
2022/01/17 07:18:06;;;;;;;50.40;24.10;;;;;;;-1.17;62.73;100116.23;125621;1099;119097;-79
2022/01/17 07:20:43;;;;;;;45.40;22.07;;;;;;;-1.10;62.29;100136.48;126085;1099;104152;-81
2022/01/17 07:23:18;;;;;;;54.87;24.10;;;;;;;-1.03;62.28;100175.59;125736;1099;104142;-79
2022/01/17 07:26:07;;;;;;;47.10;21.70;;;;;;;-0.97;62.76;100222.42;125892;1099;104198;-80
2022/01/17 07:28:46;;;;;;;46.93;22.37;;;;;;;-0.91;62.47;100233.19;125781;1099;104261;-80
2022/01/17 07:31:32;;;;;;;48.27;22.20;;;;;;;-0.84;62.60;100244.86;126012;1099;104153;-81
2022/01/17 07:34:29;;;;;;;47.53;24.33;;;;;;;-0.78;62.44;100238.52;125702;1099;104194;-81
2022/01/17 07:37:03;;;;;;;50.90;22.37;;;;;;;-0.69;62.83;100221.95;125746;1098;102855;-80
2022/01/17 07:39:43;;;;;;;45.15;23.47;;;;;;;-0.60;62.57;100202.03;125604;1099;104185;-81
2022/01/17 07:42:45;;;;;;;50.53;22.33;;;;;;;-0.51;62.11;100174.38;125825;1099;104172;-82
2022/01/17 07:45:22;;;;;;;48.70;23.47;;;;;;;-0.45;62.52;100132.66;125822;1099;104271;-82
2022/01/17 07:50:54;;;;;;;49.13;22.23;;;;;;;-0.23;62.13;100106.78;125876;1099;104172;-81
2022/01/17 07:53:54;;;;;;;44.73;22.63;;;;;;;-0.10;61.87;100117.18;125855;1099;104194;-80
2022/01/17 07:56:35;;;;;;;44.80;21.53;;;;;;;0.01;62.27;100143.75;126043;1099;104047;-81
2022/01/17 07:59:29;;;;;;;47.13;21.47;;;;;;;0.04;62.09;100168.88;125635;1099;104185;-81
2022/01/17 08:05:14;;;;;;;46.50;22.10;;;;;;;0.08;62.65;100228.55;125845;1099;104226;-81
2022/01/17 08:07:51;;;;;;;47.67;22.80;;;;;;;0.21;61.85;100253.56;125817;1099;102032;-82
2022/01/17 08:10:24;;;;;;;45.07;21.37;;;;;;;0.34;61.91;100243.35;125889;1099;104175;-81
2022/01/17 08:13:01;;;;;;;48.03;21.57;;;;;;;0.47;62.03;100232.21;125795;1099;104275;-81
2022/01/17 08:15:34;;;;;;;48.47;22.20;;;;;;;0.59;61.73;100214.09;125902;1099;104268;-80
2022/01/17 08:18:25;;;;;;;47.43;22.33;;;;;;;0.71;62.13;100170.17;125855;1099;104268;-79
2022/01/17 08:21:00;;;;;;;46.77;21.00;;;;;;;0.83;61.94;100141.72;124981;1102;104166;-81
2022/01/17 08:23:37;;;;;;;50.70;24.53;;;;;;;0.97;62.26;100124.58;124954;1102;104165;-79
2022/01/17 08:26:19;;;;;;;48.73;22.63;;;;;;;1.10;62.01;100134.05;124948;1102;104206;-80
2022/01/17 08:28:58;;;;;;;44.90;22.57;;;;;;;1.24;62.10;100147.09;125559;1099;104206;-79
2022/01/17 08:31:31;;;;;;;48.00;23.20;;;;;;;1.27;61.97;100117.97;125620;1099;104223;-80
2022/01/17 08:34:04;;;;;;;45.13;21.13;;;;;;;1.36;62.15;100118.59;125621;1099;104149;-80
2022/01/17 08:36:38;;;;;;;48.83;21.07;;;;;;;1.41;61.97;100122.36;125108;1102;104191;-80
2022/01/17 08:39:12;;;;;;;45.70;21.40;;;;;;;1.46;62.18;100114.91;125027;1099;102046;-80
2022/01/17 08:41:59;;;;;;;44.47;21.63;;;;;;;1.59;61.96;100101.08;124967;1099;104269;-80
2022/01/17 08:45:02;;;;;;;45.67;20.47;;;;;;;1.73;62.18;100094.21;125058;1102;104852;-81
2022/01/17 08:48:08;;;;;;;;;;;;;;;;;;;;;
2022/01/17 08:50:50;;;;;;;46.58;21.05;;;;;;;1.98;61.14;100082.06;126040;1099;104300;-80
2022/01/17 08:53:28;;;;;;;45.85;20.88;;;;;;;2.08;61.54;100075.76;125677;1099;102365;-79
2022/01/17 08:56:03;;;;;;;44.20;20.20;;;;;;;2.22;60.75;100058.50;125989;1099;104159;-78
2022/01/17 08:58:43;;;;;;;46.03;20.77;;;;;;;2.33;61.34;100053.98;125812;1099;104147;-79
2022/01/17 09:01:25;;;;;;;48.73;22.47;;;;;;;2.47;61.22;100049.64;125973;1099;104200;-80
2022/01/17 09:04:03;;;;;;;47.30;20.83;;;;;;;2.57;60.80;100043.31;125867;1099;104146;-80
2022/01/17 09:06:37;;;;;;;48.37;21.50;;;;;;;2.67;60.79;100035.31;125944;1099;104168;-81
2022/01/17 09:09:30;;;;;;;49.07;21.87;;;;;;;2.78;61.49;100034.23;125830;1099;104172;-80
2022/01/17 09:12:01;;;;;;;45.50;22.90;;;;;;;2.88;60.58;100015.85;126081;1099;104269;-79
2022/01/17 09:14:40;;;;;;;46.60;22.40;;;;;;;2.98;60.34;100032.83;126016;1098;104214;-80
2022/01/17 09:17:21;;;;;;;44.23;21.87;;;;;;;3.12;60.81;100018.08;126009;1099;104149;-81
2022/01/17 09:20:04;;;;;;;43.50;21.63;;;;;;;3.27;60.32;100020.63;126023;1099;104220;-81
2022/01/17 09:22:40;;;;;;;50.17;22.47;;;;;;;3.39;60.35;100008.36;126009;1099;104516;-81
2022/01/17 09:25:17;;;;;;;45.13;22.60;;;;;;;3.53;61.03;99996.16;125956;1099;104331;-79
2022/01/17 09:27:51;;;;;;;45.07;22.00;;;;;;;3.69;59.76;99987.52;126066;1099;104220;-80
2022/01/17 09:30:24;;;;;;;45.87;21.87;;;;;;;3.82;59.43;99991.70;125959;1099;104274;-79
2022/01/17 09:32:58;;;;;;;54.03;24.05;;;;;;;3.94;59.63;99999.24;125886;1098;104159;-80
2022/01/17 09:35:32;;;;;;;48.87;24.20;;;;;;;4.09;58.49;99991.39;125860;1098;104194;-80
2022/01/17 09:38:08;;;;;;;49.67;23.23;;;;;;;4.25;59.08;99975.80;125961;1099;104144;-80
2022/01/17 09:40:41;;;;;;;49.07;23.60;;;;;;;4.46;59.26;99970.84;125842;1099;111909;-81
2022/01/17 09:43:16;;;;;;;45.87;22.17;;;;;;;4.61;58.60;99955.16;126113;1099;104220;-80
2022/01/17 09:45:50;;;;;;;48.20;24.33;;;;;;;4.64;58.69;99950.11;126201;1099;104142;-78
2022/01/17 09:48:34;;;;;;;46.23;22.57;;;;;;;4.67;58.33;99942.47;126216;1099;104313;-81
2022/01/17 09:51:20;;;;;;;53.47;22.60;;;;;;;4.72;58.47;99939.19;125982;1099;104146;-79
2022/01/17 09:54:01;;;;;;;49.07;23.47;;;;;;;4.74;58.23;99930.66;126153;1099;104226;-79
2022/01/17 09:56:39;;;;;;;46.23;23.13;;;;;;;4.75;58.28;99931.55;126183;1099;104159;-80
2022/01/17 09:59:20;;;;;;;50.23;24.73;;;;;;;4.75;58.37;99921.14;126060;1099;104152;-80
2022/01/17 10:01:57;;;;;;;49.17;24.57;;;;;;;4.72;58.37;99910.59;126194;1099;104144;-81
2022/01/17 10:04:32;;;;;;;46.47;23.33;;;;;;;4.68;58.52;99910.45;126026;1099;104251;-83
2022/01/17 10:07:20;;;;;;;48.63;23.57;;;;;;;4.70;58.40;99902.73;126075;1099;104194;-82
2022/01/17 10:10:04;;;;;;;50.63;24.93;;;;;;;4.71;58.41;99893.24;125991;1099;104146;-82
2022/01/17 10:12:44;;;;;;;46.93;24.83;;;;;;;4.70;57.87;99887.13;125992;1099;104146;-82
2022/01/17 10:15:45;;;;;;;46.53;23.53;;;;;;;4.70;56.42;99887.13;126043;1099;104755;-82
2022/01/17 10:18:33;;;;;;;43.87;20.93;;;;;;;4.72;57.12;99889.80;126179;1099;104197;-80
2022/01/17 10:21:14;;;;;;;44.17;21.27;;;;;;;4.80;57.84;99891.98;125806;1099;104335;-81
2022/01/17 10:24:21;;;;;;;41.57;19.47;;;;;;;4.90;57.71;99887.23;125781;1099;104386;-81
2022/01/17 10:36:43;;;;;;;29.70;14.10;;;;;;;5.13;56.45;99839.80;125074;1099;104351;-82
2022/01/17 10:40:02;;;;;;;;;;;;;;;;;;;;;
2022/01/17 10:42:48;;;;;;;27.73;11.67;;;;;;;5.12;56.48;99829.33;125060;1102;118525;-81
2022/01/17 10:45:47;;;;;;;23.63;10.70;;;;;;;5.14;56.00;99833.80;125040;1102;104178;-80
2022/01/17 10:48:36;;;;;;;26.53;10.53;;;;;;;5.17;56.03;99828.73;125088;1102;104458;-80
2022/01/17 10:51:20;;;;;;;26.40;11.23;;;;;;;5.22;54.90;99805.53;125271;1100;104255;-82
2022/01/17 10:54:08;;;;;;;24.30;10.30;;;;;;;5.23;55.80;99796.89;125898;1099;104248;-79
2022/01/17 10:56:56;;;;;;;25.80;11.47;;;;;;;5.25;55.69;99794.36;125277;1099;104261;-79
2022/01/17 10:59:35;;;;;;;24.83;10.80;;;;;;;5.24;55.46;99792.61;125696;1099;104254;-80
2022/01/17 11:05:09;;;;;;;23.80;10.23;;;;;;;5.28;54.67;99773.69;125620;1099;104226;-80
2022/01/17 11:07:49;;;;;;;24.93;11.47;;;;;;;5.25;54.74;99758.86;126313;1099;104183;-82
2022/01/17 11:10:26;;;;;;;25.67;10.90;;;;;;;5.40;54.62;99776.84;125706;1099;102845;-81
2022/01/17 11:13:05;;;;;;;25.07;11.10;;;;;;;5.45;54.60;99784.86;126128;1099;104236;-80
2022/01/17 11:15:44;;;;;;;24.70;10.87;;;;;;;5.51;54.27;99787.73;125595;1099;104179;-80
2022/01/17 11:18:32;;;;;;;28.97;10.87;;;;;;;5.53;52.65;99784.39;125589;1098;104245;-82
2022/01/17 11:21:10;;;;;;;28.80;10.77;;;;;;;5.54;53.67;99783.55;125595;1099;104200;-80
2022/01/17 11:23:49;;;;;;;25.27;11.47;;;;;;;5.51;54.01;99777.33;125610;1099;117846;-82
2022/01/17 11:26:26;;;;;;;26.23;11.53;;;;;;;5.46;53.94;99784.92;125592;1099;104171;-80
2022/01/17 11:29:32;;;;;;;27.13;11.70;;;;;;;5.44;54.53;99775.27;125816;1099;102429;-80
2022/01/17 11:32:09;;;;;;;25.50;10.80;;;;;;;5.40;54.10;99772.52;125648;1099;104236;-79
2022/01/17 11:34:44;;;;;;;24.40;11.40;;;;;;;5.39;54.19;99757.75;125741;1099;104242;-80
2022/01/17 11:37:19;;;;;;;26.50;11.83;;;;;;;5.37;53.75;99754.17;125771;1099;104171;-81
2022/01/17 11:40:00;;;;;;;25.70;11.20;;;;;;;5.35;53.28;99748.02;125591;1099;104320;-82
2022/01/17 11:42:58;;;;;;;26.90;11.50;;;;;;;5.32;53.66;99744.41;125152;1099;104224;-80
2022/01/17 11:45:42;;;;;;;26.80;11.50;;;;;;;5.25;53.43;99737.13;125844;1099;111859;-81
2022/01/17 11:48:30;;;;;;;24.60;10.60;;;;;;;5.17;52.46;99716.89;125637;1099;104261;-81
2022/01/17 11:51:20;;;;;;;27.02;11.55;;;;;;;5.14;52.88;99708.95;125633;1099;104165;-82
2022/01/17 11:54:02;;;;;;;28.20;12.40;;;;;;;5.14;52.90;99702.84;125673;1099;104271;-83
2022/01/17 11:57:04;;;;;;;26.57;12.07;;;;;;;5.16;53.00;99704.70;125760;1099;102707;-82
2022/01/17 11:59:51;;;;;;;35.37;12.97;;;;;;;5.21;52.85;99692.78;125764;1099;104172;-84
2022/01/17 12:02:33;;;;;;;29.57;12.50;;;;;;;5.26;52.76;99681.70;125094;1099;104171;-81
2022/01/17 12:05:48;;;;;;;30.77;12.13;;;;;;;5.28;52.39;99685.25;125462;1099;104236;-82
2022/01/17 12:08:26;;;;;;;25.47;11.80;;;;;;;5.30;52.50;99679.30;125769;1099;104236;-79
2022/01/17 12:11:07;;;;;;;26.77;12.30;;;;;;;5.34;52.62;99678.59;125270;1099;104181;-81